Aviation Digital Data Service (ADDS)

Output produced by METARs form (1119 UTC 18 June 2019)
found at http://www.aviationweather.gov/metar/data/
 
Forecast for: PGUA (MARIANA/ANDERSEN, GU, US)
Text: TAF PGUA 181000Z 1810/1916 08012KT 9999 SCT015 BKN180 QNH2985INS
Forecast period: 1000 UTC 18 June 2019 to 1600 UTC 19 June 2019
Forecast type: FROM: standard forecast or significant change
Winds: from the E (80 degrees) at 14 MPH (12 knots; 6.2 m/s)
Visibility: 6 or more miles 10+ km)
Ceiling: 18000 feet AGL
Clouds: scattered clouds at 1500 feet AGL
broken clouds at 18000 feet AGL
Weather: no significant weather forecast for this period
Text: TEMPO 1816/1820 08012G18KT 8000 -SHRA BKN015 TX31/1901Z TN25/1818Z
Forecast period: 1600 to 2000 UTC 18 June 2019
Forecast type: TEMPORARY: The following changes expected for less than half the time period
Winds: from the E (80 degrees) at 14 MPH (12 knots; 6.2 m/s)
gusting to 21 MPH (18 knots; 9.3 m/s)
Visibility: 5 miles (8 km)
Ceiling: 1500 feet AGL
Clouds: broken clouds at 1500 feet AGL
Weather: -SHRA  (light rain showers)